Time;durP1;ratioP1;P1;durP2;ratioP2;P2;SDS_P1;SDS_P2;PMS_P1;PMS_P2;Temp;Humidity;BMP_temperature;BMP_pressure;BME280_temperature;BME280_humidity;BME280_pressure;Samples;Min_cycle;Max_cycle;Signal;HPM_P1;HPM_P2
2021/12/10 00:00:21;;;;;;;8.48;3.97;;;;;;;3.32;100.00;98423.28;8225924;28;20043;-82
2021/12/10 00:04:29;;;;;;;15.30;4.03;;;;;;;3.33;100.00;98414.91;8219847;28;20069;-81
2021/12/10 00:08:33;;;;;;;14.25;4.35;;;;;;;3.40;100.00;98412.06;8201991;28;20043;-81
2021/12/10 00:12:37;;;;;;;13.18;4.20;;;;;;;3.47;100.00;98406.47;8202069;28;20059;-80
2021/12/10 00:16:40;;;;;;;11.25;3.88;;;;;;;3.53;100.00;98392.72;8203062;28;20035;-82
2021/12/10 00:20:42;;;;;;;15.45;3.90;;;;;;;3.50;100.00;98387.75;8197667;28;20411;-81
2021/12/10 00:24:44;;;;;;;18.88;4.32;;;;;;;3.53;100.00;98376.38;8208669;28;20125;-81
2021/12/10 00:28:45;;;;;;;15.50;4.00;;;;;;;3.54;100.00;98369.03;8196752;28;20046;-80
2021/12/10 00:33:01;;;;;;;15.90;4.90;;;;;;;3.54;100.00;98360.84;8210027;28;20278;-81
2021/12/10 00:37:06;;;;;;;14.82;3.88;;;;;;;3.57;100.00;98355.78;8189030;28;20643;-81
2021/12/10 00:41:07;;;;;;;13.80;4.53;;;;;;;3.54;100.00;98350.81;8212057;28;20042;-80
2021/12/10 00:45:11;;;;;;;9.95;4.15;;;;;;;3.46;100.00;98343.00;8200862;28;20121;-81
2021/12/10 00:49:12;;;;;;;10.00;4.63;;;;;;;3.49;100.00;98339.00;8224533;28;20037;-81
2021/12/10 00:53:14;;;;;;;15.35;5.57;;;;;;;3.58;100.00;98327.47;8207915;28;20393;-81
2021/12/10 00:57:15;;;;;;;12.57;5.60;;;;;;;3.60;100.00;98322.63;8203600;28;20058;-81
2021/12/10 01:01:21;;;;;;;10.88;4.50;;;;;;;3.54;100.00;98318.13;8217817;28;20058;-79
2021/12/10 01:05:23;;;;;;;11.73;4.18;;;;;;;3.55;100.00;98308.06;8188140;28;20416;-81
2021/12/10 01:09:31;;;;;;;14.27;4.68;;;;;;;3.47;100.00;98305.72;8205336;28;20051;-81
2021/12/10 01:13:35;;;;;;;13.90;4.68;;;;;;;3.48;100.00;98308.22;8223798;28;20058;-82
2021/12/10 01:30:41;;;;;;;12.90;3.38;;;;;;;3.34;100.00;98276.88;8227722;28;20038;-79
2021/12/10 01:34:42;;;;;;;10.82;3.25;;;;;;;3.36;100.00;98275.56;8234514;28;20101;-80
2021/12/10 01:38:45;;;;;;;12.07;3.35;;;;;;;3.36;100.00;98263.81;8233168;28;20035;-81
2021/12/10 01:42:49;;;;;;;11.63;3.17;;;;;;;3.37;100.00;98249.16;8228704;28;20047;-79
2021/12/10 01:46:49;;;;;;;13.45;2.60;;;;;;;3.39;100.00;98247.00;8222631;28;20039;-79
2021/12/10 01:50:50;;;;;;;7.82;2.60;;;;;;;3.40;100.00;98232.34;8228226;28;20130;-79
2021/12/10 01:54:54;;;;;;;7.30;2.58;;;;;;;3.34;100.00;98223.25;8206210;28;20038;-80
2021/12/10 01:58:57;;;;;;;7.40;2.20;;;;;;;3.36;100.00;98212.09;8202115;28;20114;-79
2021/12/10 02:02:58;;;;;;;6.53;2.40;;;;;;;3.38;100.00;98218.94;8218710;28;20123;-81
2021/12/10 02:07:00;;;;;;;10.10;3.08;;;;;;;3.40;100.00;98219.53;8225231;28;20492;-79
2021/12/10 02:11:01;;;;;;;8.17;2.67;;;;;;;3.34;98.89;98211.53;8202494;28;20043;-78
2021/12/10 02:15:04;;;;;;;6.28;2.15;;;;;;;3.42;99.53;98211.13;8219029;28;20046;-79
2021/12/10 02:19:07;;;;;;;8.15;2.75;;;;;;;3.42;98.54;98202.94;8204897;28;20062;-78
2021/12/10 02:23:08;;;;;;;8.93;2.33;;;;;;;3.38;98.14;98199.06;8222238;28;20039;-79
2021/12/10 02:27:08;;;;;;;8.98;2.83;;;;;;;3.37;97.35;98172.91;8194998;28;20055;-79
2021/12/10 02:31:12;;;;;;;13.13;2.90;;;;;;;3.40;99.23;98167.00;8209611;28;20049;-79
2021/12/10 02:35:14;;;;;;;12.50;3.28;;;;;;;3.37;98.01;98153.84;8213435;28;20054;-79
2021/12/10 02:39:19;;;;;;;8.73;3.28;;;;;;;3.45;99.38;98150.75;8220803;28;20117;-81
2021/12/10 02:43:21;;;;;;;8.88;3.30;;;;;;;3.49;99.46;98135.56;8211941;28;20043;-80
2021/12/10 02:47:22;;;;;;;;;;;;;;;3.53;99.68;98120.38;8220607;28;20102;-80
2021/12/10 02:51:23;;;;;;;9.88;4.10;;;;;;;3.47;99.94;98118.63;8213252;28;19918;-80
2021/12/10 02:55:24;;;;;;;13.77;2.78;;;;;;;3.32;99.62;98099.31;8224580;28;20062;-81
2021/12/10 02:59:25;;;;;;;7.90;2.50;;;;;;;3.12;100.00;98095.16;8214644;28;20039;-80
2021/12/10 03:03:25;;;;;;;8.70;3.55;;;;;;;2.89;100.00;98087.91;8210243;28;20140;-80
2021/12/10 03:07:26;;;;;;;10.25;3.22;;;;;;;2.67;100.00;98092.34;8214535;28;20385;-81
2021/12/10 03:11:31;;;;;;;9.93;2.35;;;;;;;2.51;100.00;98092.03;8223225;28;20043;-80
2021/12/10 03:15:35;;;;;;;7.18;2.42;;;;;;;2.35;100.00;98092.78;8218344;28;20138;-80
2021/12/10 03:19:36;;;;;;;11.48;2.47;;;;;;;2.21;100.00;98086.78;8222143;28;20051;-80
2021/12/10 03:23:42;;;;;;;9.93;2.53;;;;;;;2.10;100.00;98084.06;8202936;28;20074;-80
2021/12/10 03:27:43;;;;;;;8.30;2.80;;;;;;;2.03;100.00;98086.91;8202173;28;20050;-80
2021/12/10 03:31:44;;;;;;;9.48;3.33;;;;;;;1.95;100.00;98079.09;8217965;28;20045;-79
2021/12/10 03:35:48;;;;;;;8.35;2.95;;;;;;;1.88;100.00;98071.09;8200362;28;20050;-79
2021/12/10 03:39:51;;;;;;;11.63;3.10;;;;;;;1.79;100.00;98050.78;8201613;28;20070;-80
2021/12/10 03:43:53;;;;;;;9.00;3.47;;;;;;;1.67;100.00;98041.81;8221466;28;20050;-81
2021/12/10 03:47:54;;;;;;;10.88;3.20;;;;;;;1.50;100.00;98033.53;8218591;28;20047;-80
2021/12/10 03:51:54;;;;;;;12.60;4.03;;;;;;;1.43;100.00;98027.38;8209810;28;20069;-80
2021/12/10 03:56:06;;;;;;;7.35;2.90;;;;;;;1.43;100.00;98021.94;8221734;28;20449;-79
2021/12/10 04:00:07;;;;;;;10.52;3.40;;;;;;;1.35;100.00;98007.66;8224319;28;20054;-81
2021/12/10 04:04:13;;;;;;;10.73;2.88;;;;;;;1.32;100.00;97991.84;8199236;28;20070;-80
2021/12/10 04:08:14;;;;;;;8.13;2.60;;;;;;;1.30;100.00;97971.44;8203959;28;20047;-80
2021/12/10 04:12:15;;;;;;;7.82;2.13;;;;;;;1.15;100.00;97974.59;8214631;28;20043;-80
2021/12/10 04:16:18;;;;;;;11.27;3.38;;;;;;;1.19;100.00;97975.81;8218050;28;20049;-79
2021/12/10 04:20:20;;;;;;;7.65;2.60;;;;;;;1.14;100.00;97972.97;8226260;28;20046;-80
2021/12/10 04:24:24;;;;;;;7.95;3.05;;;;;;;1.11;100.00;97973.44;8214466;28;20061;-80
2021/12/10 04:28:24;;;;;;;11.15;3.13;;;;;;;1.02;100.00;97972.94;8194060;28;20071;-80
2021/12/10 04:32:27;;;;;;;7.10;2.55;;;;;;;0.92;100.00;97964.53;8226409;28;20125;-80
2021/12/10 04:36:27;;;;;;;4.30;2.28;;;;;;;0.80;100.00;97950.94;8216678;28;20741;-80
2021/12/10 04:40:29;;;;;;;5.88;2.70;;;;;;;0.71;100.00;97951.53;8215206;28;20053;-80
2021/12/10 04:44:29;;;;;;;9.60;2.72;;;;;;;0.62;100.00;97954.56;8224397;28;20046;-80
2021/12/10 04:48:43;;;;;;;10.43;2.88;;;;;;;0.51;100.00;97943.72;8219817;28;20051;-80
2021/12/10 04:52:45;;;;;;;8.10;3.10;;;;;;;0.48;100.00;97930.59;8196612;28;20132;-81
2021/12/10 04:56:46;;;;;;;6.95;3.20;;;;;;;0.40;100.00;97934.47;8207416;28;20089;-80
2021/12/10 05:00:48;;;;;;;9.95;2.85;;;;;;;0.32;100.00;97921.25;8217397;28;20526;-80
2021/12/10 05:04:49;;;;;;;5.75;2.58;;;;;;;0.28;100.00;97920.88;8217215;28;20153;-81
2021/12/10 05:08:50;;;;;;;8.27;2.90;;;;;;;0.24;100.00;97917.00;8221127;28;20381;-80
2021/12/10 05:12:50;;;;;;;12.68;3.15;;;;;;;0.19;100.00;97903.31;8221795;28;20497;-80
2021/12/10 05:16:52;;;;;;;21.40;3.83;;;;;;;0.15;100.00;97893.97;8227494;28;20054;-79
2021/12/10 05:20:54;;;;;;;7.70;2.30;;;;;;;0.13;100.00;97882.56;8213287;28;20047;-81
2021/12/10 05:24:54;;;;;;;11.40;2.60;;;;;;;0.11;100.00;97876.53;8210881;28;20083;-81
2021/12/10 05:28:55;;;;;;;8.57;2.30;;;;;;;0.04;100.00;97860.38;8220928;28;20050;-80
2021/12/10 05:32:57;;;;;;;6.68;2.28;;;;;;;0.03;100.00;97871.44;8220681;28;20117;-81
2021/12/10 05:36:58;;;;;;;7.35;3.05;;;;;;;0.02;100.00;97867.91;8203277;28;20097;-79
2021/12/10 05:41:02;;;;;;;6.57;2.42;;;;;;;-0.03;100.00;97851.50;8210570;28;20035;-81
2021/12/10 05:45:04;;;;;;;7.47;2.28;;;;;;;-0.07;100.00;97834.91;8212303;28;20078;-80
2021/12/10 05:49:05;;;;;;;3.20;2.22;;;;;;;-0.12;100.00;97834.78;8202284;28;20047;-79
2021/12/10 05:53:06;;;;;;;5.25;2.25;;;;;;;-0.19;100.00;97817.81;8211129;28;20451;-79
2021/12/10 05:57:06;;;;;;;9.05;2.25;;;;;;;-0.26;100.00;97820.59;8197696;28;20042;-80
2021/12/10 06:01:10;;;;;;;4.88;2.03;;;;;;;-0.30;100.00;97813.16;8216994;28;20051;-79
2021/12/10 06:05:11;;;;;;;4.65;1.98;;;;;;;-0.34;100.00;97803.84;8214921;28;20487;-80
2021/12/10 06:09:12;;;;;;;5.97;2.20;;;;;;;-0.37;100.00;97791.59;8219823;28;20051;-80
2021/12/10 06:13:12;;;;;;;6.25;2.15;;;;;;;-0.40;100.00;97783.94;8223289;28;20123;-80
2021/12/10 06:17:13;;;;;;;10.65;2.58;;;;;;;-0.41;100.00;97785.00;8213160;28;20046;-81
2021/12/10 06:21:14;;;;;;;4.65;1.77;;;;;;;-0.37;100.00;97774.53;8229779;28;20054;-80
2021/12/10 06:25:15;;;;;;;4.65;2.03;;;;;;;-0.37;100.00;97763.72;8205368;28;20050;-81
2021/12/10 06:29:16;;;;;;;7.78;2.30;;;;;;;-0.37;100.00;97747.47;8207399;28;20078;-81
2021/12/10 06:33:20;;;;;;;8.13;2.10;;;;;;;-0.38;100.00;97743.13;8204969;28;20057;-80
2021/12/10 06:37:21;;;;;;;9.85;2.22;;;;;;;-0.41;100.00;97740.91;8225693;28;20087;-79
2021/12/10 06:41:22;;;;;;;6.70;2.40;;;;;;;-0.41;100.00;97730.06;8204942;28;20039;-81
2021/12/10 06:45:26;;;;;;;7.30;2.60;;;;;;;-0.46;100.00;97720.75;8211528;28;20053;-79
2021/12/10 06:49:27;;;;;;;7.22;2.15;;;;;;;-0.42;100.00;97714.88;8210929;28;20042;-81
2021/12/10 06:53:29;;;;;;;6.30;2.70;;;;;;;-0.37;100.00;97720.44;8205368;28;20072;-81
2021/12/10 06:57:30;;;;;;;8.35;2.40;;;;;;;-0.39;100.00;97711.72;8225974;28;20456;-81
2021/12/10 07:01:35;;;;;;;10.45;2.53;;;;;;;-0.44;100.00;97715.13;8217275;28;20408;-79
2021/12/10 07:05:36;;;;;;;6.82;3.13;;;;;;;-0.46;100.00;97698.28;8233657;28;20050;-80
2021/12/10 07:09:38;;;;;;;7.38;2.03;;;;;;;-0.46;100.00;97693.69;8228476;28;20042;-80
2021/12/10 07:13:39;;;;;;;4.75;2.55;;;;;;;-0.41;100.00;97690.31;8229289;28;20046;-82
2021/12/10 07:17:42;;;;;;;5.53;2.40;;;;;;;-0.41;100.00;97679.47;8230793;28;20111;-80
2021/12/10 07:21:44;;;;;;;6.30;3.15;;;;;;;-0.42;100.00;97687.81;8221956;28;20046;-81
2021/12/10 07:25:45;;;;;;;5.15;2.00;;;;;;;-0.44;100.00;97685.34;8226303;28;20047;-80
2021/12/10 07:29:47;;;;;;;6.00;2.28;;;;;;;-0.44;100.00;97689.94;8228725;28;20854;-81
2021/12/10 07:33:47;;;;;;;4.60;2.35;;;;;;;-0.43;100.00;97672.66;8220614;28;20039;-81
2021/12/10 07:37:48;;;;;;;6.95;2.35;;;;;;;-0.41;100.00;97667.84;8221891;28;20057;-80
2021/12/10 07:41:49;;;;;;;7.10;2.53;;;;;;;-0.39;100.00;97668.41;8225068;28;20082;-80
2021/12/10 07:45:54;;;;;;;8.48;2.70;;;;;;;-0.38;100.00;97672.78;8214533;28;20050;-81
2021/12/10 07:49:54;;;;;;;6.50;2.25;;;;;;;-0.34;100.00;97679.38;8219182;28;20047;-81
2021/12/10 07:53:57;;;;;;;4.10;1.92;;;;;;;-0.30;100.00;97670.56;8210246;28;20050;-80
2021/12/10 07:58:00;;;;;;;6.53;2.15;;;;;;;-0.25;100.00;97659.84;8206527;28;20381;-80
2021/12/10 08:02:02;;;;;;;6.47;2.03;;;;;;;-0.21;100.00;97645.84;8202797;28;20046;-81
2021/12/10 08:06:03;;;;;;;6.77;2.77;;;;;;;-0.17;100.00;97637.03;8212145;28;20075;-82
2021/12/10 08:10:05;;;;;;;7.45;1.80;;;;;;;-0.11;100.00;97638.81;8208315;28;20085;-81
2021/12/10 08:14:07;;;;;;;5.50;1.92;;;;;;;-0.05;100.00;97635.16;8199399;28;20046;-81
2021/12/10 08:18:08;;;;;;;9.27;2.05;;;;;;;0.06;100.00;97630.81;8220376;28;20073;-81
2021/12/10 08:22:08;;;;;;;4.57;1.67;;;;;;;0.16;100.00;97641.06;8222929;28;20054;-81
2021/12/10 08:26:09;;;;;;;6.85;1.90;;;;;;;0.27;100.00;97633.97;8213414;28;20102;-78
2021/12/10 08:30:16;;;;;;;4.65;1.70;;;;;;;0.38;100.00;97636.66;8220722;28;20047;-81
2021/12/10 08:34:16;;;;;;;11.77;1.83;;;;;;;0.58;100.00;97638.19;8195137;28;20056;-82
2021/12/10 08:38:18;;;;;;;2.50;1.10;;;;;;;0.74;100.00;97636.59;8221629;28;20070;-83
2021/12/10 08:42:18;;;;;;;3.35;1.58;;;;;;;0.89;100.00;97624.19;8199368;28;20074;-81
2021/12/10 08:46:20;;;;;;;4.55;1.48;;;;;;;1.03;100.00;97630.13;8216331;28;20046;-80
2021/12/10 08:50:25;;;;;;;2.75;1.40;;;;;;;1.20;100.00;97630.19;8203858;28;20082;-80
2021/12/10 08:54:28;;;;;;;3.67;1.77;;;;;;;1.36;100.00;97623.97;8217620;28;20122;-82
2021/12/10 08:58:29;;;;;;;2.90;1.48;;;;;;;1.52;100.00;97624.25;8189103;28;20287;-81
2021/12/10 09:02:29;;;;;;;5.15;1.50;;;;;;;1.65;100.00;97625.81;8222876;28;20109;-82
2021/12/10 09:06:34;;;;;;;4.20;1.08;;;;;;;1.80;100.00;97626.06;8218324;28;20134;-81
2021/12/10 09:10:39;;;;;;;6.55;1.70;;;;;;;1.93;100.00;97623.00;8222875;28;20055;-78
2021/12/10 09:14:45;;;;;;;3.85;1.75;;;;;;;1.99;100.00;97622.03;8215143;28;20050;-80
2021/12/10 09:18:46;;;;;;;8.88;2.00;;;;;;;2.05;99.48;97623.78;8211451;28;20039;-81
2021/12/10 09:22:48;;;;;;;5.63;2.13;;;;;;;2.10;99.65;97619.47;8219408;28;20042;-79
2021/12/10 09:26:54;;;;;;;7.13;2.10;;;;;;;2.15;99.19;97617.66;8211651;28;20039;-82
2021/12/10 09:30:58;;;;;;;4.95;1.75;;;;;;;2.17;98.28;97606.53;8205187;28;20538;-82
2021/12/10 09:35:05;;;;;;;6.95;1.90;;;;;;;2.26;99.17;97600.44;8206810;28;20043;-80
2021/12/10 09:39:07;;;;;;;4.75;1.70;;;;;;;2.38;98.37;97613.06;8218961;28;20055;-81
2021/12/10 09:43:09;;;;;;;5.40;1.40;;;;;;;2.40;97.88;97591.91;8220888;28;20078;-81
2021/12/10 09:47:14;;;;;;;5.30;1.20;;;;;;;2.46;97.79;97596.34;8230704;28;20062;-79
2021/12/10 09:51:29;;;;;;;4.45;1.88;;;;;;;2.57;97.52;97589.16;8217970;28;20731;-77
2021/12/10 09:55:31;;;;;;;9.70;1.90;;;;;;;2.73;97.91;97583.63;8206041;28;20094;-81
2021/12/10 09:59:34;;;;;;;6.28;1.65;;;;;;;2.82;96.23;97580.47;8231097;28;20053;-77
2021/12/10 10:03:37;;;;;;;5.95;2.03;;;;;;;2.97;95.54;97576.03;8204668;28;20170;-83
2021/12/10 10:07:38;;;;;;;3.08;1.38;;;;;;;3.11;95.55;97565.53;8207293;28;20039;-82
2021/12/10 10:11:39;;;;;;;3.47;1.40;;;;;;;3.27;96.38;97546.63;8229592;28;20102;-81
2021/12/10 10:15:41;;;;;;;4.85;1.42;;;;;;;3.37;95.04;97542.13;8215646;28;20550;-81
2021/12/10 10:19:43;;;;;;;4.47;1.38;;;;;;;3.59;92.20;97547.47;8219821;28;20053;-81
2021/12/10 10:23:45;;;;;;;5.82;1.92;;;;;;;3.89;92.82;97546.88;8225238;28;20510;-78
2021/12/10 10:27:46;;;;;;;3.95;1.63;;;;;;;4.03;87.27;97540.97;8217804;28;20066;-83
2021/12/10 10:31:58;;;;;;;5.47;1.15;;;;;;;3.85;73.32;97540.31;8227131;28;20031;-81
2021/12/10 10:36:11;;;;;;;4.97;1.20;;;;;;;3.95;75.12;97528.66;8205253;28;20050;-80
2021/12/10 10:40:16;;;;;;;3.75;1.60;;;;;;;4.06;71.20;97527.63;8225042;28;20455;-83
2021/12/10 10:44:18;;;;;;;4.03;1.35;;;;;;;4.29;76.44;97512.78;8227215;28;20137;-83
2021/12/10 10:48:21;;;;;;;2.88;0.95;;;;;;;4.27;72.50;97504.03;8230031;28;20047;-80
2021/12/10 10:52:35;;;;;;;2.55;1.13;;;;;;;4.31;69.63;97496.97;8212272;28;20034;-83
2021/12/10 10:56:45;;;;;;;4.25;1.48;;;;;;;4.25;67.57;97499.94;8225278;28;20412;-82
2021/12/10 11:00:58;;;;;;;6.20;1.23;;;;;;;4.40;69.62;97502.72;8203640;28;20053;-83
2021/12/10 11:05:10;;;;;;;4.30;1.50;;;;;;;4.52;68.13;97499.75;8220437;28;20101;-83
2021/12/10 11:09:48;;;;;;;4.15;1.40;;;;;;;4.63;66.38;97508.81;8234446;28;20047;-82
2021/12/10 11:14:15;;;;;;;5.35;1.40;;;;;;;4.72;68.04;97516.19;8190240;28;20038;-82
2021/12/10 11:18:15;;;;;;;5.30;1.33;;;;;;;4.90;69.13;97517.63;8230403;28;20062;-80
2021/12/10 11:22:16;;;;;;;5.88;2.97;;;;;;;4.92;68.32;97522.81;8212744;28;20444;-82
2021/12/10 11:26:17;;;;;;;5.97;1.88;;;;;;;4.86;66.57;97527.44;8210989;28;20043;-83
2021/12/10 11:30:22;;;;;;;3.50;1.48;;;;;;;4.82;67.05;97520.91;8225285;28;20078;-81
2021/12/10 11:34:45;;;;;;;4.65;1.63;;;;;;;4.93;67.58;97522.53;8231410;28;20051;-80
2021/12/10 11:38:50;;;;;;;4.57;1.67;;;;;;;4.92;66.50;97525.56;8227020;28;20039;-80
2021/12/10 11:42:57;;;;;;;4.40;1.67;;;;;;;4.64;67.82;97521.34;8188525;28;20042;-82
2021/12/10 11:47:26;;;;;;;3.10;1.65;;;;;;;4.63;68.90;97522.44;8233148;28;20516;-83
2021/12/10 11:51:32;;;;;;;4.68;2.17;;;;;;;4.49;68.03;97520.22;8222831;28;20516;-81
2021/12/10 11:55:35;;;;;;;3.90;2.08;;;;;;;4.33;68.80;97508.41;8225228;28;20051;-81
2021/12/10 11:59:41;;;;;;;4.25;1.58;;;;;;;4.47;72.30;97506.03;8231315;28;20089;-82
2021/12/10 12:03:42;;;;;;;5.50;1.95;;;;;;;4.65;72.91;97498.47;8231141;28;20364;-79
2021/12/10 12:07:43;;;;;;;3.78;1.77;;;;;;;4.75;73.70;97501.22;8224901;28;20051;-82
2021/12/10 12:12:12;;;;;;;3.83;1.63;;;;;;;4.78;72.76;97496.03;8224180;28;20038;-82
2021/12/10 12:16:17;;;;;;;4.82;1.30;;;;;;;4.81;74.51;97486.50;8223412;28;20039;-82
2021/12/10 12:20:41;;;;;;;3.78;1.60;;;;;;;4.80;74.37;97476.69;8240412;28;20050;-82
2021/12/10 12:24:57;;;;;;;2.78;1.20;;;;;;;4.63;72.46;97467.91;8221237;28;20126;-84
2021/12/10 12:29:10;;;;;;;4.63;1.60;;;;;;;4.59;73.34;97461.34;8220651;28;20047;-81
2021/12/10 12:33:11;;;;;;;4.43;1.75;;;;;;;4.52;72.47;97469.75;8240488;28;20057;-79
2021/12/10 12:37:14;;;;;;;3.60;1.33;;;;;;;4.56;73.96;97468.16;8245394;28;20047;-80
2021/12/10 12:41:21;;;;;;;5.45;2.05;;;;;;;4.36;70.20;97460.72;8275859;28;20061;-78
2021/12/10 12:45:24;;;;;;;4.72;1.52;;;;;;;4.45;73.02;97461.84;8268758;28;20081;-77
2021/12/10 12:49:30;;;;;;;4.90;2.00;;;;;;;4.53;72.97;97460.50;8241851;28;20051;-82
2021/12/10 12:53:33;;;;;;;4.10;1.25;;;;;;;4.43;72.15;97457.75;8203063;28;20051;-81
2021/12/10 12:57:40;;;;;;;2.90;1.30;;;;;;;4.47;72.24;97464.31;8211022;28;20101;-82
2021/12/10 13:01:48;;;;;;;4.07;1.65;;;;;;;4.55;73.12;97466.50;8215323;28;20516;-80
2021/12/10 13:06:20;;;;;;;4.45;1.88;;;;;;;4.57;73.76;97465.16;8228067;28;20588;-81
2021/12/10 13:10:27;;;;;;;5.25;2.20;;;;;;;4.53;74.18;97461.31;8231287;28;20055;-79
2021/12/10 13:14:35;;;;;;;3.08;1.05;;;;;;;4.57;73.59;97465.16;8221986;28;20130;-81
2021/12/10 13:18:37;;;;;;;3.83;1.30;;;;;;;4.56;74.89;97468.97;8232613;28;20064;-82
2021/12/10 13:22:39;;;;;;;4.82;1.40;;;;;;;4.47;73.76;97462.41;8211476;28;20055;-81
2021/12/10 13:26:40;;;;;;;4.47;1.58;;;;;;;4.49;73.50;97468.41;8239114;28;20425;-80
2021/12/10 13:30:45;;;;;;;2.85;1.38;;;;;;;4.44;71.83;97470.31;8237670;28;20043;-80
2021/12/10 13:34:46;;;;;;;6.68;1.58;;;;;;;4.37;71.64;97475.97;8241058;28;20066;-81
2021/12/10 13:38:51;;;;;;;3.60;1.25;;;;;;;4.35;72.32;97483.63;8239010;28;20034;-82
2021/12/10 13:42:52;;;;;;;3.60;1.50;;;;;;;4.15;70.79;97480.81;8195973;28;20468;-81
2021/12/10 13:46:54;;;;;;;4.07;1.30;;;;;;;4.07;72.80;97484.84;8230788;28;20059;-80
2021/12/10 13:50:55;;;;;;;3.93;1.23;;;;;;;3.87;73.96;97500.00;8232360;28;20046;-80
2021/12/10 13:54:56;;;;;;;3.10;1.27;;;;;;;3.67;76.40;97493.63;8231464;28;20082;-81
2021/12/10 13:59:00;;;;;;;2.13;1.02;;;;;;;3.54;79.31;97500.31;8231975;28;20297;-78
2021/12/10 14:03:00;;;;;;;4.55;1.02;;;;;;;3.48;80.14;97501.34;8228061;28;20034;-81
2021/12/10 14:07:08;;;;;;;2.10;0.90;;;;;;;3.47;81.08;97510.63;8219646;28;20051;-80
2021/12/10 14:11:24;;;;;;;4.72;1.50;;;;;;;3.37;82.19;97512.19;8234655;28;20464;-79
2021/12/10 14:15:47;;;;;;;3.03;1.10;;;;;;;3.24;83.64;97512.59;8218106;28;20066;-78
2021/12/10 14:19:51;;;;;;;3.05;1.60;;;;;;;3.21;84.43;97510.38;8206810;28;20472;-80
2021/12/10 14:23:58;;;;;;;3.10;1.30;;;;;;;3.12;85.19;97518.22;8202682;28;20059;-78
2021/12/10 14:28:11;;;;;;;4.43;1.40;;;;;;;3.08;85.89;97525.25;8217142;28;20061;-81
2021/12/10 14:32:24;;;;;;;3.47;1.20;;;;;;;2.99;86.12;97524.06;8224091;28;20051;-81
2021/12/10 14:36:28;;;;;;;6.45;1.77;;;;;;;2.90;87.51;97531.06;8217379;28;20197;-79
2021/12/10 14:40:32;;;;;;;4.40;1.63;;;;;;;2.81;89.29;97527.97;8223511;28;20570;-78
2021/12/10 14:44:34;;;;;;;4.95;1.52;;;;;;;2.71;90.16;97536.03;8231423;28;20445;-79
2021/12/10 14:48:37;;;;;;;2.90;1.20;;;;;;;2.66;91.04;97539.50;8219939;28;20074;-77
2021/12/10 14:52:40;;;;;;;4.20;1.88;;;;;;;2.60;90.88;97540.50;8230196;28;20096;-80
2021/12/10 14:56:48;;;;;;;26.48;11.10;;;;;;;2.44;93.24;97547.66;8227329;28;20121;-79
2021/12/10 15:01:04;;;;;;;14.85;6.53;;;;;;;2.34;94.80;97544.81;8231466;28;20035;-80
2021/12/10 15:05:13;;;;;;;9.13;4.35;;;;;;;2.22;95.74;97542.22;8204995;28;20058;-81
2021/12/10 15:09:13;;;;;;;9.35;3.85;;;;;;;2.16;96.47;97551.38;8215845;28;20039;-79
2021/12/10 15:13:28;;;;;;;4.18;1.88;;;;;;;2.14;95.88;97558.13;8230979;28;20097;-81
2021/12/10 15:17:35;;;;;;;8.23;3.97;;;;;;;2.09;96.01;97564.31;8226633;28;20038;-79
2021/12/10 15:21:41;;;;;;;6.18;2.97;;;;;;;2.06;95.72;97564.81;8219883;28;20058;-80
2021/12/10 15:25:42;;;;;;;9.55;4.55;;;;;;;2.03;96.34;97568.03;8228225;28;20043;-81
2021/12/10 15:30:08;;;;;;;16.73;7.85;;;;;;;2.03;95.14;97568.84;8217428;28;20050;-79
2021/12/10 15:34:09;;;;;;;6.95;3.08;;;;;;;1.98;96.20;97585.06;8228380;28;20050;-79
2021/12/10 15:38:18;;;;;;;7.15;3.60;;;;;;;1.97;96.57;97588.88;8230355;28;20481;-80
2021/12/10 15:42:23;;;;;;;5.03;2.17;;;;;;;1.94;95.82;97589.38;8211119;28;20074;-79
2021/12/10 15:46:28;;;;;;;13.02;5.95;;;;;;;1.90;96.58;97599.06;8229102;28;20562;-79
2021/12/10 15:50:36;;;;;;;10.07;3.60;;;;;;;1.86;96.48;97605.25;8217162;28;20082;-80
2021/12/10 15:54:42;;;;;;;5.00;2.28;;;;;;;1.86;96.93;97607.97;8226010;28;20046;-80
2021/12/10 15:58:43;;;;;;;4.03;1.90;;;;;;;1.81;97.12;97612.25;8214281;28;20026;-80
2021/12/10 16:02:44;;;;;;;4.90;2.42;;;;;;;1.80;97.11;97616.03;8228515;28;20550;-79
2021/12/10 16:06:46;;;;;;;6.45;2.47;;;;;;;1.77;97.30;97621.94;8229219;28;20057;-78
2021/12/10 16:10:50;;;;;;;7.63;4.05;;;;;;;1.78;97.57;97633.63;8212555;28;20049;-79
2021/12/10 16:14:51;;;;;;;7.20;2.78;;;;;;;1.80;97.98;97632.31;8228302;28;20555;-79
2021/12/10 16:18:52;;;;;;;4.45;2.15;;;;;;;1.81;97.50;97639.41;8228737;28;20058;-80
2021/12/10 16:22:53;;;;;;;5.82;3.05;;;;;;;1.75;97.46;97643.09;8219078;28;20046;-79
2021/12/10 16:27:00;;;;;;;6.22;3.25;;;;;;;1.71;98.52;97644.66;8230342;28;20106;-81
2021/12/10 16:31:06;;;;;;;8.18;4.70;;;;;;;1.75;98.89;97653.94;8225032;28;20050;-81
2021/12/10 16:35:11;;;;;;;23.13;11.73;;;;;;;1.74;98.77;97652.31;8231498;28;20038;-80
2021/12/10 16:39:14;;;;;;;15.90;8.75;;;;;;;1.75;98.32;97656.66;8227147;28;20051;-80
2021/12/10 16:43:18;;;;;;;10.68;5.25;;;;;;;1.75;99.23;97659.38;8197170;28;20066;-80
2021/12/10 16:47:26;;;;;;;6.90;3.70;;;;;;;1.72;100.00;97659.88;8214665;28;20070;-80
2021/12/10 16:51:32;;;;;;;6.70;3.20;;;;;;;1.73;99.26;97666.16;8226890;28;20436;-80
2021/12/10 16:55:37;;;;;;;6.85;2.85;;;;;;;1.68;99.54;97669.59;8195027;28;20046;-79
2021/12/10 16:59:38;;;;;;;11.25;5.57;;;;;;;1.70;99.49;97683.75;8217262;28;20043;-79
2021/12/10 17:03:39;;;;;;;7.53;3.60;;;;;;;1.71;99.36;97684.56;8226166;28;20049;-80
2021/12/10 17:07:42;;;;;;;5.90;3.50;;;;;;;1.66;100.00;97690.72;8223662;28;20098;-80
2021/12/10 17:11:48;;;;;;;7.10;3.40;;;;;;;1.66;100.00;97707.00;8203573;28;20053;-79
2021/12/10 17:15:49;;;;;;;35.05;15.55;;;;;;;1.66;100.00;97720.59;8220567;28;20042;-80
2021/12/10 17:19:54;;;;;;;27.73;11.52;;;;;;;1.64;100.00;97722.75;8233294;28;20447;-78
2021/12/10 17:23:57;;;;;;;7.50;4.43;;;;;;;1.67;100.00;97724.97;8238339;28;20050;-78
2021/12/10 17:28:02;;;;;;;9.70;5.63;;;;;;;1.65;100.00;97729.81;8213049;28;20497;-78
2021/12/10 17:32:09;;;;;;;8.50;4.22;;;;;;;1.66;100.00;97746.91;8228018;28;20125;-80
2021/12/10 17:36:12;;;;;;;11.38;6.22;;;;;;;1.67;100.00;97754.84;8216335;28;20047;-80
2021/12/10 17:40:26;;;;;;;15.15;7.03;;;;;;;1.68;100.00;97761.91;8219140;28;20105;-81
2021/12/10 17:44:27;;;;;;;14.63;5.55;;;;;;;1.66;100.00;97769.44;8226193;28;20574;-80
2021/12/10 17:48:32;;;;;;;18.50;8.48;;;;;;;1.65;100.00;97772.44;8222119;28;20043;-82
2021/12/10 17:52:36;;;;;;;17.95;9.60;;;;;;;1.72;100.00;97778.53;8226905;28;20118;-81
2021/12/10 17:56:36;;;;;;;;;;;;;;;1.74;100.00;97779.13;8216465;28;20389;-79
2021/12/10 18:00:53;;;;;;;11.68;6.28;;;;;;;1.72;100.00;97787.47;8230342;28;19922;-80
2021/12/10 18:04:56;;;;;;;16.10;6.60;;;;;;;1.71;100.00;97787.75;8227863;28;20041;-80
2021/12/10 18:08:56;;;;;;;;;;;;;;;1.65;100.00;97797.69;8225928;28;20174;-81
2021/12/10 18:13:00;;;;;;;22.45;10.73;;;;;;;1.73;100.00;97808.16;8218567;28;19925;-79
2021/12/10 18:17:01;;;;;;;16.92;8.02;;;;;;;1.73;100.00;97818.19;8231235;28;20035;-78
2021/12/10 18:21:07;;;;;;;12.48;6.72;;;;;;;1.77;100.00;97820.19;8208563;28;20041;-80
2021/12/10 18:25:09;;;;;;;9.52;4.82;;;;;;;1.86;100.00;97815.19;8220506;28;20227;-81
2021/12/10 18:29:14;;;;;;;21.25;9.75;;;;;;;1.84;100.00;97825.47;8212095;28;20050;-80
2021/12/10 18:33:14;;;;;;;26.70;13.20;;;;;;;1.89;100.00;97824.75;8226857;28;20122;-78
2021/12/10 18:37:21;;;;;;;57.72;25.42;;;;;;;1.91;100.00;97839.75;8227924;28;20531;-81
2021/12/10 18:41:21;;;;;;;20.65;10.82;;;;;;;1.91;100.00;97852.50;8231914;28;20078;-81
2021/12/10 18:45:41;;;;;;;14.98;8.70;;;;;;;1.95;100.00;97853.66;8215021;28;20055;-80
2021/12/10 18:49:42;;;;;;;27.33;13.60;;;;;;;1.96;100.00;97860.72;8227682;28;20130;-82
2021/12/10 18:53:50;;;;;;;22.50;10.32;;;;;;;1.97;100.00;97867.81;8228840;28;20047;-81
2021/12/10 18:57:52;;;;;;;26.58;12.93;;;;;;;2.04;100.00;97879.34;8221581;28;20386;-79
2021/12/10 19:01:59;;;;;;;26.50;12.48;;;;;;;2.09;100.00;97879.47;8233599;28;20078;-81
2021/12/10 19:06:04;;;;;;;24.35;11.60;;;;;;;2.10;100.00;97891.97;8225874;28;20053;-80
2021/12/10 19:10:17;;;;;;;20.52;10.38;;;;;;;2.16;100.00;97899.16;8234300;28;21295;-80
2021/12/10 19:14:25;;;;;;;21.33;10.68;;;;;;;2.14;100.00;97919.47;8238141;28;20054;-80
2021/12/10 19:18:28;;;;;;;19.13;10.02;;;;;;;2.10;100.00;97919.16;8235610;28;20119;-80
2021/12/10 19:22:35;;;;;;;19.08;10.13;;;;;;;2.10;100.00;97926.47;8219375;28;20057;-82